createdAt,value
2018-12-29T00:00:55.911Z,100146.32
2018-12-29T00:03:25.400Z,100142.98
2018-12-29T00:05:55.037Z,100143.61
2018-12-29T00:08:24.579Z,100154.69
2018-12-29T00:10:54.241Z,100153.21
2018-12-29T00:13:23.774Z,100158.20
2018-12-29T00:15:53.280Z,100153.00
2018-12-29T00:18:22.832Z,100152.51
2018-12-29T00:20:52.502Z,100160.59
2018-12-29T00:23:22.192Z,100154.76
2018-12-29T00:25:51.904Z,100151.73
2018-12-29T00:28:21.362Z,100161.02
2018-12-29T00:30:50.963Z,100150.64
2018-12-29T00:33:20.450Z,100150.29
2018-12-29T00:35:50.033Z,100143.89
2018-12-29T00:38:19.536Z,100144.23
2018-12-29T00:40:49.046Z,100139.67
2018-12-29T00:43:18.778Z,100145.02
2018-12-29T00:45:48.329Z,100143.00
2018-12-29T00:48:18.495Z,100150.35
2018-12-29T00:50:48.379Z,100146.34
2018-12-29T00:53:17.915Z,100144.88
2018-12-29T00:55:47.563Z,100145.18
2018-12-29T00:58:17.005Z,100151.27
2018-12-29T01:00:46.544Z,100149.98
2018-12-29T01:03:16.035Z,100147.97
2018-12-29T01:05:45.617Z,100156.38
2018-12-29T01:08:15.047Z,100149.30
2018-12-29T01:10:44.729Z,100152.47
2018-12-29T01:13:14.330Z,100155.11
2018-12-29T01:15:43.868Z,100146.53
2018-12-29T01:18:13.412Z,100146.11
2018-12-29T01:20:42.937Z,100152.94
2018-12-29T01:23:12.457Z,100150.44
2018-12-29T01:25:41.968Z,100146.86
2018-12-29T01:28:11.421Z,100147.07
2018-12-29T01:30:41.043Z,100148.47
2018-12-29T01:33:10.660Z,100149.18
2018-12-29T01:35:40.194Z,100151.50
2018-12-29T01:38:09.763Z,100150.41
2018-12-29T01:40:39.201Z,100148.94
2018-12-29T01:43:08.825Z,100147.17
2018-12-29T01:45:38.779Z,100137.76
2018-12-29T01:48:08.376Z,100138.31
2018-12-29T01:50:37.830Z,100133.89
2018-12-29T01:53:07.442Z,100132.09
2018-12-29T01:55:36.944Z,100136.80
2018-12-29T01:58:06.495Z,100126.12
2018-12-29T02:00:36.189Z,100128.51
2018-12-29T02:03:05.705Z,100130.34
2018-12-29T02:05:35.126Z,100124.64
2018-12-29T02:08:04.720Z,100125.06
2018-12-29T02:10:34.331Z,100121.13
2018-12-29T02:13:03.916Z,100119.23
2018-12-29T02:15:33.334Z,100124.30
2018-12-29T02:18:02.763Z,100125.59
2018-12-29T02:20:32.316Z,100116.31
2018-12-29T02:23:02.017Z,100119.97
2018-12-29T02:25:31.537Z,100114.48
2018-12-29T02:28:00.982Z,100117.30
2018-12-29T02:30:30.376Z,100119.22
2018-12-29T02:32:59.886Z,100112.27
2018-12-29T02:35:29.386Z,100122.59
2018-12-29T02:37:58.905Z,100118.37
2018-12-29T02:40:28.539Z,100120.45
2018-12-29T02:42:58.388Z,100116.83
2018-12-29T02:45:32.992Z,100118.87
2018-12-29T02:47:59.142Z,100119.50
2018-12-29T02:50:28.636Z,100116.79
2018-12-29T02:52:58.034Z,100112.01
2018-12-29T02:55:27.541Z,100120.82
2018-12-29T02:57:57.057Z,100113.93
2018-12-29T03:00:26.617Z,100108.52
2018-12-29T03:02:56.146Z,100109.10
2018-12-29T03:05:25.804Z,100100.74
2018-12-29T03:07:55.301Z,100104.75
2018-12-29T03:10:24.739Z,100104.25
2018-12-29T03:12:54.400Z,100101.37
2018-12-29T03:15:23.859Z,100101.47
2018-12-29T03:17:53.451Z,100104.41
2018-12-29T03:20:23.096Z,100099.07
2018-12-29T03:22:52.520Z,100104.20
2018-12-29T03:25:22.076Z,100104.20
2018-12-29T03:27:51.577Z,100104.20
2018-12-29T03:30:21.165Z,100103.38
2018-12-29T03:32:50.589Z,100101.34
2018-12-29T03:35:20.033Z,100105.48
2018-12-29T03:37:49.634Z,100096.84
2018-12-29T03:40:19.113Z,100101.83
2018-12-29T03:42:48.511Z,100098.86
2018-12-29T03:45:18.014Z,100102.33
2018-12-29T03:47:47.643Z,100100.85
2018-12-29T03:50:17.168Z,100102.54
2018-12-29T03:52:46.605Z,100108.15
2018-12-29T03:55:16.133Z,100109.53
2018-12-29T03:57:45.746Z,100112.91
2018-12-29T04:00:15.268Z,100107.92
2018-12-29T04:02:44.662Z,100108.02
2018-12-29T04:05:14.226Z,100109.13
2018-12-29T04:07:43.697Z,100117.70
2018-12-29T04:10:16.501Z,100119.04
2018-12-29T04:12:49.991Z,100119.67
2018-12-29T04:15:19.615Z,100116.16
2018-12-29T04:17:49.181Z,100123.05
2018-12-29T04:20:18.609Z,100117.97
2018-12-29T04:22:48.205Z,100114.45
2018-12-29T04:25:17.703Z,100107.64
2018-12-29T04:27:47.274Z,100116.14
2018-12-29T04:30:16.806Z,100116.01
2018-12-29T04:32:46.320Z,100121.39
2018-12-29T04:35:15.790Z,100125.70
2018-12-29T04:37:45.243Z,100123.56
2018-12-29T04:40:14.769Z,100128.20
2018-12-29T04:42:44.312Z,100133.75
2018-12-29T04:45:13.830Z,100133.83
2018-12-29T04:47:43.220Z,100128.49
2018-12-29T04:50:12.689Z,100134.81
2018-12-29T04:52:42.241Z,100144.16
2018-12-29T04:55:11.741Z,100136.91
2018-12-29T04:57:41.179Z,100143.17
2018-12-29T05:00:10.711Z,100148.74
2018-12-29T05:02:40.196Z,100155.34
2018-12-29T05:05:09.673Z,100151.33
2018-12-29T05:07:39.058Z,100152.66
2018-12-29T05:10:08.529Z,100157.30
2018-12-29T05:12:38.057Z,100163.34
2018-12-29T05:15:07.648Z,100161.92
2018-12-29T05:17:37.199Z,100169.53
2018-12-29T05:20:06.709Z,100164.56
2018-12-29T05:22:36.167Z,100180.39
2018-12-29T05:25:05.584Z,100187.81
2018-12-29T05:27:35.066Z,100180.66
2018-12-29T05:30:05.176Z,100187.24
2018-12-29T05:32:34.646Z,100184.52
2018-12-29T05:35:04.145Z,100190.70
2018-12-29T05:37:33.648Z,100192.88
2018-12-29T05:40:03.055Z,100197.59
2018-12-29T05:42:32.480Z,100201.23
2018-12-29T05:45:03.701Z,100201.50
2018-12-29T05:47:33.369Z,100203.33
2018-12-29T05:50:02.766Z,100202.22
2018-12-29T05:52:32.177Z,100203.81
2018-12-29T05:55:01.712Z,100206.13
2018-12-29T05:57:31.244Z,100208.80
2018-12-29T06:00:00.758Z,100207.59
2018-12-29T06:02:30.244Z,100221.36
2018-12-29T06:04:59.828Z,100213.84
2018-12-29T06:07:29.296Z,100215.09
2018-12-29T06:09:59.001Z,100227.58
2018-12-29T06:12:28.456Z,100235.03
2018-12-29T06:14:57.896Z,100234.72
2018-12-29T06:17:27.429Z,100245.13
2018-12-29T06:19:56.910Z,100241.73
2018-12-29T06:22:26.392Z,100243.56
2018-12-29T06:24:55.889Z,100241.73
2018-12-29T06:27:25.355Z,100245.55
2018-12-29T06:29:54.802Z,100245.06
2018-12-29T06:32:24.312Z,100249.06
2018-12-29T06:34:53.785Z,100251.98
2018-12-29T06:37:23.253Z,100251.27
2018-12-29T06:39:52.755Z,100245.81
2018-12-29T06:42:22.170Z,100256.34
2018-12-29T06:44:51.633Z,100253.25
2018-12-29T06:47:21.120Z,100250.09
2018-12-29T06:49:50.619Z,100254.03
2018-12-29T06:52:20.129Z,100253.38
2018-12-29T06:54:49.625Z,100258.03
2018-12-29T06:57:19.057Z,100259.56
2018-12-29T06:59:48.603Z,100261.94
2018-12-29T07:02:18.074Z,100253.52
2018-12-29T07:04:47.566Z,100258.00
2018-12-29T07:07:17.228Z,100261.94
2018-12-29T07:09:46.689Z,100263.01
2018-12-29T07:12:16.157Z,100265.52
2018-12-29T07:14:45.686Z,100265.02
2018-12-29T07:17:15.260Z,100266.03
2018-12-29T07:19:44.773Z,100262.39
2018-12-29T07:22:14.247Z,100260.70
2018-12-29T07:24:43.676Z,100263.30
2018-12-29T07:27:13.084Z,100262.75
2018-12-29T07:29:42.617Z,100262.94
2018-12-29T07:32:12.169Z,100259.56
2018-12-29T07:34:41.617Z,100262.58
2018-12-29T07:50:18.812Z,100270.03
2018-12-29T07:52:48.377Z,100272.18
2018-12-29T07:55:17.926Z,100282.39
2018-12-29T08:03:04.141Z,100287.00
2018-12-29T08:05:33.690Z,100290.84
2018-12-29T08:08:03.132Z,100297.39
2018-12-29T08:10:32.701Z,100292.35
2018-12-29T08:13:02.166Z,100292.17
2018-12-29T08:15:31.712Z,100296.60
2018-12-29T08:18:01.217Z,100298.42
2018-12-29T08:20:30.677Z,100310.29
2018-12-29T08:23:00.208Z,100300.05
2018-12-29T08:25:29.661Z,100299.21
2018-12-29T08:27:59.179Z,100304.59
2018-12-29T08:30:28.706Z,100304.48
2018-12-29T08:32:58.181Z,100302.80
2018-12-29T08:35:27.621Z,100305.93
2018-12-29T08:37:57.198Z,100307.57
2018-12-29T08:40:26.705Z,100305.57
2018-12-29T08:42:56.148Z,100307.37
2018-12-29T08:45:25.876Z,100303.11
2018-12-29T08:47:55.424Z,100300.27
2018-12-29T08:50:24.986Z,100296.47
2018-12-29T08:52:54.453Z,100301.91
2018-12-29T08:55:23.961Z,100296.98
2018-12-29T08:57:53.515Z,100294.80
2018-12-29T09:00:23.061Z,100304.92
2018-12-29T09:02:52.593Z,100308.93
2018-12-29T09:05:22.117Z,100302.61
2018-12-29T09:07:51.660Z,100297.96
2018-12-29T09:10:21.245Z,100307.11
2018-12-29T09:12:50.711Z,100303.94
2018-12-29T09:15:20.157Z,100298.41
2018-12-29T09:17:49.696Z,100299.48
2018-12-29T09:20:19.216Z,100303.73
2018-12-29T09:22:48.661Z,100296.16
2018-12-29T09:25:18.212Z,100298.84
2018-12-29T09:27:47.785Z,100303.70
2018-12-29T09:30:17.281Z,100306.52
2018-12-29T09:32:46.802Z,100309.81
2018-12-29T09:35:16.390Z,100315.23
2018-12-29T09:37:45.867Z,100312.76
2018-12-29T09:40:15.340Z,100311.07
2018-12-29T09:42:44.924Z,100307.06
2018-12-29T09:45:14.405Z,100310.31
2018-12-29T09:47:43.957Z,100308.21
2018-12-29T09:50:13.499Z,100310.22
2018-12-29T09:52:43.037Z,100305.95
2018-12-29T09:55:12.435Z,100300.24
2018-12-29T09:57:41.842Z,100304.70
2018-12-29T10:00:11.304Z,100298.06
2018-12-29T10:02:40.740Z,100306.08
2018-12-29T10:05:10.212Z,100306.22
2018-12-29T10:07:39.614Z,100302.88
2018-12-29T10:10:09.079Z,100301.94
2018-12-29T10:12:38.616Z,100307.98
2018-12-29T10:15:08.641Z,100304.70
2018-12-29T10:17:38.096Z,100306.80
2018-12-29T10:20:07.518Z,100302.52
2018-12-29T10:22:37.059Z,100301.09
2018-12-29T10:25:06.851Z,100303.53
2018-12-29T10:27:36.292Z,100309.35
2018-12-29T10:30:06.430Z,100305.98
2018-12-29T10:32:35.923Z,100301.03
2018-12-29T10:35:05.521Z,100298.00
2018-12-29T10:37:35.525Z,100304.11
2018-12-29T10:40:05.095Z,100296.84
2018-12-29T10:42:34.550Z,100293.77
2018-12-29T10:45:04.107Z,100296.62
2018-12-29T10:47:34.721Z,100296.11
2018-12-29T10:50:04.507Z,100294.77
2018-12-29T10:52:33.961Z,100299.84
2018-12-29T10:55:03.544Z,100299.34
2018-12-29T10:57:33.028Z,100295.95
2018-12-29T11:00:02.463Z,100298.58
2018-12-29T11:02:31.946Z,100295.03
2018-12-29T11:05:01.460Z,100299.83
2018-12-29T11:07:30.952Z,100301.31
2018-12-29T11:10:00.443Z,100300.66
2018-12-29T11:12:29.869Z,100307.94
2018-12-29T11:14:59.293Z,100313.12
2018-12-29T11:17:28.793Z,100307.43
2018-12-29T11:19:58.280Z,100313.78
2018-12-29T11:22:27.667Z,100316.35
2018-12-29T11:24:57.169Z,100315.66
2018-12-29T11:27:26.654Z,100317.82
2018-12-29T11:29:56.227Z,100321.38
2018-12-29T11:32:25.642Z,100317.16
2018-12-29T11:34:55.229Z,100322.64
2018-12-29T11:37:24.755Z,100333.20
2018-12-29T11:39:54.223Z,100325.73
2018-12-29T11:42:23.723Z,100331.55
2018-12-29T11:44:53.191Z,100333.27
2018-12-29T11:47:22.668Z,100332.92
2018-12-29T11:49:52.168Z,100333.23
2018-12-29T11:52:22.035Z,100342.11
2018-12-29T11:54:51.518Z,100341.22
2018-12-29T11:57:21.157Z,100342.20
2018-12-29T11:59:50.750Z,100345.86
2018-12-29T12:02:24.417Z,100350.73
2018-12-29T12:04:51.368Z,100355.25
2018-12-29T12:07:20.950Z,100349.77
2018-12-29T12:09:50.416Z,100353.88
2018-12-29T12:12:19.843Z,100363.37
2018-12-29T12:14:49.633Z,100362.17
2018-12-29T12:17:19.123Z,100366.41
2018-12-29T12:19:48.549Z,100367.39
2018-12-29T12:22:17.997Z,100370.50
2018-12-29T12:24:47.442Z,100377.45
2018-12-29T12:27:16.925Z,100373.85
2018-12-29T12:29:46.703Z,100376.12
2018-12-29T12:32:16.126Z,100384.36
2018-12-29T12:34:45.586Z,100385.52
2018-12-29T12:37:15.110Z,100388.05
2018-12-29T12:39:45.057Z,100389.86
2018-12-29T12:42:14.483Z,100386.48
2018-12-29T12:44:44.020Z,100391.81
2018-12-29T12:47:13.920Z,100391.50
2018-12-29T12:49:43.357Z,100393.25
2018-12-29T12:52:12.830Z,100403.11
2018-12-29T12:54:42.466Z,100399.45
2018-12-29T12:57:12.227Z,100405.50
2018-12-29T12:59:42.050Z,100410.00
2018-12-29T13:02:11.545Z,100402.50
2018-12-29T13:04:41.261Z,100405.12
2018-12-29T13:07:10.827Z,100411.94
2018-12-29T13:09:40.415Z,100411.94
2018-12-29T13:12:09.877Z,100413.61
2018-12-29T13:14:39.399Z,100418.25
2018-12-29T13:17:08.877Z,100417.87
2018-12-29T13:19:38.403Z,100417.87
2018-12-29T13:22:07.756Z,100421.30
2018-12-29T13:24:37.285Z,100422.40
2018-12-29T13:27:06.778Z,100425.02
2018-12-29T13:29:36.256Z,100427.52
2018-12-29T13:32:05.902Z,100433.92
2018-12-29T13:34:35.419Z,100436.87
2018-12-29T13:37:04.877Z,100440.39
2018-12-29T13:39:34.656Z,100445.02
2018-12-29T13:42:04.299Z,100444.76
2018-12-29T13:44:33.729Z,100448.28
2018-12-29T13:47:03.133Z,100451.09
2018-12-29T13:49:32.638Z,100456.22
2018-12-29T13:52:02.172Z,100451.66
2018-12-29T13:54:31.583Z,100459.69
2018-12-29T13:57:01.065Z,100461.02
2018-12-29T13:59:30.654Z,100472.61
2018-12-29T14:02:00.207Z,100472.96
2018-12-29T14:04:29.683Z,100473.23
2018-12-29T14:06:59.139Z,100472.47
2018-12-29T14:09:28.563Z,100468.73
2018-12-29T14:11:58.470Z,100475.72
2018-12-29T14:14:28.239Z,100480.14
2018-12-29T14:16:58.415Z,100483.17
2018-12-29T14:19:27.767Z,100487.80
2018-12-29T14:21:57.406Z,100483.88
2018-12-29T14:24:26.803Z,100487.95
2018-12-29T14:26:56.281Z,100485.49
2018-12-29T14:29:25.776Z,100488.03
2018-12-29T14:31:55.455Z,100491.06
2018-12-29T14:34:24.999Z,100494.09
2018-12-29T14:36:54.741Z,100496.41
2018-12-29T14:39:24.269Z,100496.33
2018-12-29T14:41:53.887Z,100498.23
2018-12-29T14:44:23.385Z,100494.48
2018-12-29T14:46:52.800Z,100501.12
2018-12-29T14:49:22.221Z,100501.73
2018-12-29T14:51:51.719Z,100505.39
2018-12-29T14:54:21.256Z,100506.28
2018-12-29T14:56:50.783Z,100500.94
2018-12-29T14:59:20.234Z,100499.19
2018-12-29T15:01:49.726Z,100500.42
2018-12-29T15:04:19.788Z,100507.31
2018-12-29T15:06:49.345Z,100503.28
2018-12-29T15:09:18.868Z,100505.56
2018-12-29T15:11:48.502Z,100505.77
2018-12-29T15:14:17.931Z,100519.80
2018-12-29T15:16:47.818Z,100510.16
2018-12-29T15:19:17.270Z,100515.64
2018-12-29T15:21:46.759Z,100520.91
2018-12-29T15:24:16.296Z,100522.15
2018-12-29T15:26:45.874Z,100519.77
2018-12-29T15:29:16.324Z,100530.52
2018-12-29T15:31:45.770Z,100531.00
2018-12-29T15:34:15.261Z,100531.85
2018-12-29T15:36:44.912Z,100530.62
2018-12-29T15:39:14.372Z,100529.97
2018-12-29T15:41:43.836Z,100534.20
2018-12-29T15:44:13.284Z,100527.77
2018-12-29T15:46:42.817Z,100543.17
2018-12-29T15:49:12.426Z,100537.95
2018-12-29T15:51:41.868Z,100541.42
2018-12-29T15:54:11.289Z,100539.67
2018-12-29T15:56:40.829Z,100540.52
2018-12-29T15:59:10.477Z,100547.92
2018-12-29T16:01:39.946Z,100545.13
2018-12-29T16:04:09.481Z,100548.52
2018-12-29T16:06:38.999Z,100549.48
2018-12-29T16:09:08.758Z,100542.70
2018-12-29T16:11:38.565Z,100548.64
2018-12-29T16:14:08.090Z,100544.63
2018-12-29T16:16:38.312Z,100557.49
2018-12-29T16:19:07.804Z,100554.53
2018-12-29T16:21:37.411Z,100559.19
2018-12-29T16:24:06.965Z,100564.17
2018-12-29T16:26:36.489Z,100562.22
2018-12-29T16:29:05.985Z,100562.22
2018-12-29T16:31:35.505Z,100561.86
2018-12-29T16:34:05.450Z,100562.84
2018-12-29T16:36:35.365Z,100565.94
2018-12-29T16:39:06.412Z,100565.94
2018-12-29T16:41:35.944Z,100573.69
2018-12-29T16:44:05.488Z,100569.33
2018-12-29T16:46:35.197Z,100570.66
2018-12-29T16:49:06.970Z,100566.23
2018-12-29T16:51:36.287Z,100574.41
2018-12-29T16:54:05.786Z,100576.95
2018-12-29T16:56:35.589Z,100574.05
2018-12-29T16:59:05.025Z,100574.61
2018-12-29T17:01:34.695Z,100570.05
2018-12-29T17:04:04.155Z,100573.95
2018-12-29T17:06:33.972Z,100572.13
2018-12-29T17:09:03.982Z,100582.86
2018-12-29T17:11:33.473Z,100574.12
2018-12-29T17:14:02.875Z,100568.35
2018-12-29T17:16:32.685Z,100575.87
2018-12-29T17:19:02.185Z,100571.74
2018-12-29T17:21:31.781Z,100570.22
2018-12-29T17:24:01.268Z,100571.25
2018-12-29T17:26:30.789Z,100574.77
2018-12-29T17:29:00.243Z,100572.48
2018-12-29T17:31:29.673Z,100580.73
2018-12-29T17:33:59.298Z,100576.80
2018-12-29T17:36:28.902Z,100580.11
2018-12-29T17:38:58.473Z,100574.77
2018-12-29T17:41:28.026Z,100575.20
2018-12-29T17:43:57.524Z,100572.17
2018-12-29T17:46:27.433Z,100578.48
2018-12-29T17:48:57.074Z,100585.09
2018-12-29T17:51:26.474Z,100575.45
2018-12-29T17:53:55.964Z,100581.94
2018-12-29T17:56:25.844Z,100584.48
2018-12-29T18:01:30.019Z,100583.09
2018-12-29T18:03:59.639Z,100591.00
2018-12-29T18:06:29.405Z,100583.63
2018-12-29T18:08:59.211Z,100594.26
2018-12-29T18:11:28.641Z,100596.83
2018-12-29T18:13:58.287Z,100595.48
2018-12-29T18:16:27.827Z,100602.52
2018-12-29T18:18:57.431Z,100596.55
2018-12-29T18:21:27.070Z,100599.03
2018-12-29T18:23:56.618Z,100600.13
2018-12-29T18:26:26.583Z,100608.58
2018-12-29T18:28:56.086Z,100604.24
2018-12-29T18:31:25.583Z,100607.96
2018-12-29T18:33:55.146Z,100595.70
2018-12-29T18:36:24.590Z,100615.41
2018-12-29T18:38:54.036Z,100613.59
2018-12-29T18:41:23.991Z,100610.56
2018-12-29T18:43:53.682Z,100605.41
2018-12-29T18:46:23.360Z,100610.63
2018-12-29T18:48:52.840Z,100614.56
2018-12-29T18:51:22.342Z,100613.36
2018-12-29T18:53:51.781Z,100607.91
2018-12-29T18:56:21.489Z,100615.24
2018-12-29T18:58:51.018Z,100620.73
2018-12-29T19:01:20.475Z,100622.20
2018-12-29T19:03:50.026Z,100626.20
2018-12-29T19:06:19.557Z,100623.15
2018-12-29T19:08:49.515Z,100625.58
2018-12-29T19:11:19.132Z,100623.30
2018-12-29T19:13:48.811Z,100625.11
2018-12-29T19:16:18.859Z,100628.27
2018-12-29T19:18:48.472Z,100619.77
2018-12-29T19:21:18.219Z,100626.61
2018-12-29T19:23:49.427Z,100627.64
2018-12-29T19:26:19.190Z,100621.53
2018-12-29T19:28:48.961Z,100626.73
2018-12-29T19:31:19.042Z,100626.75
2018-12-29T19:33:48.515Z,100629.91
2018-12-29T19:36:18.137Z,100630.73
2018-12-29T19:38:48.159Z,100630.27
2018-12-29T19:41:17.955Z,100632.21
2018-12-29T19:43:47.849Z,100630.88
2018-12-29T19:46:17.623Z,100632.70
2018-12-29T19:48:47.126Z,100626.32
2018-12-29T19:51:16.682Z,100626.07
2018-12-29T19:53:46.586Z,100628.06
2018-12-29T19:56:16.013Z,100620.92
2018-12-29T19:58:45.711Z,100621.28
2018-12-29T20:01:15.222Z,100624.56
2018-12-29T20:03:44.666Z,100622.06
2018-12-29T20:06:14.268Z,100620.61
2018-12-29T20:08:43.872Z,100626.10
2018-12-29T20:11:13.268Z,100621.86
2018-12-29T20:13:42.723Z,100621.61
2018-12-29T20:16:12.329Z,100628.77
2018-12-29T20:18:42.121Z,100622.34
2018-12-29T20:21:11.593Z,100630.84
2018-12-29T20:23:41.262Z,100629.02
2018-12-29T20:26:10.772Z,100632.33
2018-12-29T20:28:40.152Z,100635.20
2018-12-29T20:31:10.034Z,100631.20
2018-12-29T20:33:39.521Z,100630.83
2018-12-29T20:36:09.057Z,100634.59
2018-12-29T20:38:38.531Z,100633.50
2018-12-29T20:41:08.007Z,100631.20
2018-12-29T20:43:37.584Z,100634.23
2018-12-29T20:46:07.093Z,100642.59
2018-12-29T20:48:36.609Z,100639.92
2018-12-29T20:51:06.016Z,100634.23
2018-12-29T20:53:35.524Z,100638.59
2018-12-29T20:56:05.388Z,100634.59
2018-12-29T20:58:34.922Z,100637.46
2018-12-29T21:01:04.475Z,100639.64
2018-12-29T21:03:34.025Z,100648.98
2018-12-29T21:06:03.523Z,100645.59
2018-12-29T21:08:33.034Z,100645.59
2018-12-29T21:11:03.070Z,100645.14
2018-12-29T21:13:32.644Z,100637.50
2018-12-29T21:16:02.210Z,100649.14
2018-12-29T21:18:31.672Z,100642.47
2018-12-29T21:21:01.199Z,100646.72
2018-12-29T21:23:30.677Z,100645.74
2018-12-29T21:26:00.205Z,100648.05
2018-12-29T21:28:29.745Z,100647.97
2018-12-29T21:30:59.233Z,100644.66
2018-12-29T21:33:29.361Z,100645.30
2018-12-29T21:35:59.143Z,100643.84
2018-12-29T21:38:28.877Z,100641.30
2018-12-29T21:40:58.490Z,100650.63
2018-12-29T21:43:28.017Z,100649.05
2018-12-29T21:45:57.518Z,100646.51
2018-12-29T21:48:27.071Z,100642.75
2018-12-29T21:50:56.646Z,100650.14
2018-12-29T21:53:26.094Z,100648.09
2018-12-29T21:55:57.895Z,100648.09
2018-12-29T21:58:27.544Z,100647.23
2018-12-29T22:00:57.048Z,100646.87
2018-12-29T22:03:26.522Z,100644.36
2018-12-29T22:05:56.067Z,100652.94
2018-12-29T22:08:25.526Z,100647.39
2018-12-29T22:10:54.978Z,100638.66
2018-12-29T22:13:24.700Z,100635.39
2018-12-29T22:15:54.197Z,100637.81
2018-12-29T22:18:24.948Z,100628.97
2018-12-29T22:20:54.665Z,100633.20
2018-12-29T22:23:24.150Z,100628.75
2018-12-29T22:25:53.873Z,100623.91
2018-12-29T22:28:23.317Z,100623.02
2018-12-29T22:30:52.965Z,100630.09
2018-12-29T22:33:22.391Z,100618.94
2018-12-29T22:35:51.928Z,100625.72
2018-12-29T22:38:21.580Z,100627.30
2018-12-29T22:40:51.070Z,100632.39
2018-12-29T22:43:20.558Z,100624.63
2018-12-29T22:45:50.201Z,100624.99
2018-12-29T22:48:19.902Z,100624.75
2018-12-29T22:50:49.617Z,100617.48
2018-12-29T22:53:19.111Z,100617.69
2018-12-29T22:55:48.677Z,100607.42
2018-12-29T22:58:18.192Z,100604.27
2018-12-29T23:00:48.196Z,100601.23
2018-12-29T23:03:17.802Z,100601.36
2018-12-29T23:05:47.225Z,100601.60
2018-12-29T23:08:16.873Z,100602.58
2018-12-29T23:10:46.484Z,100601.16
2018-12-29T23:13:15.936Z,100595.58
2018-12-29T23:15:45.344Z,100597.27
2018-12-29T23:18:14.822Z,100596.42
2018-12-29T23:20:49.162Z,100589.52
2018-12-29T23:23:15.884Z,100593.39
2018-12-29T23:25:45.830Z,100593.79
2018-12-29T23:28:15.286Z,100587.97
2018-12-29T23:30:44.761Z,100582.27
2018-12-29T23:33:14.222Z,100594.36
2018-12-29T23:35:43.859Z,100581.19
2018-12-29T23:38:13.534Z,100575.98
2018-12-29T23:40:43.104Z,100575.98
2018-12-29T23:43:12.575Z,100576.70
2018-12-29T23:45:42.065Z,100577.94
2018-12-29T23:48:11.544Z,100586.54
2018-12-29T23:50:41.016Z,100586.69
2018-12-29T23:53:10.481Z,100583.20
2018-12-29T23:55:40.330Z,100586.34
2018-12-29T23:58:10.245Z,100589.23
